Terminal Aerodrome Forecast
Issued by NWS

Home | Current Version | Previous Version | Text Only | Print | Product List | Glossary On
Versions: 1 2 3 4 5 6 7 8 9 10 11 12 13 14 15 16 17 18 19 20 21 22 23 24 25 26 27 28 29 30 31 32 33 34 35 36 37 38 39 40 41 42 43 44 45 46 47 48 49 50
000
FTAK31 PANC 182341
TAFASD
TAF
PASD 182341Z 1900/1924 VRB06KT 6SM -RA BR SCT008 BKN025
      TEMPO 1900/1902 16012KT
     FM191000 29010G20KT 6SM -SHRASN BKN025 BKN050
     FM191300 29020G33KT 6SM -SHSN SCT025 BKN035
      AMD LTD TO CLD VIS AND WIND=

USA.gov is the U.S. government's official web portal to all federal, state and local government web resources and services.